sensor_id;sensor_type;location;lat;lon;timestamp;temperature;humidity
20400;DHT22;10359;53.596;22.520;2023-09-12T00:01:58;15.50;99.90
20400;DHT22;10359;53.596;22.520;2023-09-12T00:04:50;15.50;99.90
20400;DHT22;10359;53.596;22.520;2023-09-12T00:11:02;15.50;99.90
20400;DHT22;10359;53.596;22.520;2023-09-12T00:20:37;15.40;99.90
20400;DHT22;10359;53.596;22.520;2023-09-12T00:26:48;15.30;99.90
20400;DHT22;10359;53.596;22.520;2023-09-12T00:33:16;15.20;99.90
20400;DHT22;10359;53.596;22.520;2023-09-12T00:39:48;15.10;99.90
20400;DHT22;10359;53.596;22.520;2023-09-12T00:46:23;15.20;99.90
20400;DHT22;10359;53.596;22.520;2023-09-12T01:00:11;15.10;99.90
20400;DHT22;10359;53.596;22.520;2023-09-12T01:06:44;14.90;99.90
20400;DHT22;10359;53.596;22.520;2023-09-12T01:13:20;14.80;99.90
20400;DHT22;10359;53.596;22.520;2023-09-12T01:19:55;14.80;99.90
20400;DHT22;10359;53.596;22.520;2023-09-12T01:26:52;14.70;99.90
20400;DHT22;10359;53.596;22.520;2023-09-12T01:33:48;14.60;99.90
20400;DHT22;10359;53.596;22.520;2023-09-12T01:40:29;14.70;99.90
20400;DHT22;10359;53.596;22.520;2023-09-12T01:47:21;14.50;99.90
20400;DHT22;10359;53.596;22.520;2023-09-12T01:54:14;14.50;99.90
20400;DHT22;10359;53.596;22.520;2023-09-12T02:01:25;14.40;99.90
20400;DHT22;10359;53.596;22.520;2023-09-12T02:12:19;14.30;99.90
20400;DHT22;10359;53.596;22.520;2023-09-12T02:18:59;14.20;99.90
20400;DHT22;10359;53.596;22.520;2023-09-12T02:25:56;14.00;99.90
20400;DHT22;10359;53.596;22.520;2023-09-12T02:36:30;13.90;99.90
20400;DHT22;10359;53.596;22.520;2023-09-12T02:40:10;13.90;99.90
20400;DHT22;10359;53.596;22.520;2023-09-12T02:43:08;13.80;99.90
20400;DHT22;10359;53.596;22.520;2023-09-12T02:50:00;13.80;99.90
20400;DHT22;10359;53.596;22.520;2023-09-12T02:56:52;13.70;99.90
20400;DHT22;10359;53.596;22.520;2023-09-12T03:03:43;13.70;99.90
20400;DHT22;10359;53.596;22.520;2023-09-12T03:10:28;13.70;99.90
20400;DHT22;10359;53.596;22.520;2023-09-12T03:17:28;13.70;99.90
20400;DHT22;10359;53.596;22.520;2023-09-12T03:24:25;13.60;99.90
20400;DHT22;10359;53.596;22.520;2023-09-12T03:31:14;13.50;99.90
20400;DHT22;10359;53.596;22.520;2023-09-12T03:37:55;13.40;99.90
20400;DHT22;10359;53.596;22.520;2023-09-12T03:44:35;13.40;99.90
20400;DHT22;10359;53.596;22.520;2023-09-12T03:51:15;13.30;99.90
20400;DHT22;10359;53.596;22.520;2023-09-12T03:54:28;13.30;99.90
20400;DHT22;10359;53.596;22.520;2023-09-12T03:57:24;13.30;99.90
20400;DHT22;10359;53.596;22.520;2023-09-12T04:04:11;13.40;99.90
20400;DHT22;10359;53.596;22.520;2023-09-12T04:10:59;13.30;99.90
20400;DHT22;10359;53.596;22.520;2023-09-12T04:17:56;13.40;99.90
20400;DHT22;10359;53.596;22.520;2023-09-12T04:24:43;13.40;99.90
20400;DHT22;10359;53.596;22.520;2023-09-12T04:31:25;13.40;99.90
20400;DHT22;10359;53.596;22.520;2023-09-12T04:38:12;13.50;99.90
20400;DHT22;10359;53.596;22.520;2023-09-12T04:44:59;13.60;99.90
20400;DHT22;10359;53.596;22.520;2023-09-12T04:51:40;13.70;99.90
20400;DHT22;10359;53.596;22.520;2023-09-12T04:54:44;13.70;99.90
20400;DHT22;10359;53.596;22.520;2023-09-12T04:57:47;13.80;99.90
20400;DHT22;10359;53.596;22.520;2023-09-12T05:04:44;13.90;99.90
20400;DHT22;10359;53.596;22.520;2023-09-12T05:11:33;14.10;99.90
20400;DHT22;10359;53.596;22.520;2023-09-12T05:18:20;14.40;99.90
20400;DHT22;10359;53.596;22.520;2023-09-12T05:25:17;14.70;99.90
20400;DHT22;10359;53.596;22.520;2023-09-12T05:32:16;14.90;99.90
20400;DHT22;10359;53.596;22.520;2023-09-12T05:39:02;15.00;99.90
20400;DHT22;10359;53.596;22.520;2023-09-12T05:45:49;15.20;99.90
20400;DHT22;10359;53.596;22.520;2023-09-12T05:52:48;15.40;99.90
20400;DHT22;10359;53.596;22.520;2023-09-12T05:55:50;15.60;99.90
20400;DHT22;10359;53.596;22.520;2023-09-12T06:06:19;16.20;99.90
20400;DHT22;10359;53.596;22.520;2023-09-12T06:13:00;16.70;99.90
20400;DHT22;10359;53.596;22.520;2023-09-12T06:19:50;17.10;99.90
20400;DHT22;10359;53.596;22.520;2023-09-12T06:26:37;17.60;99.90
20400;DHT22;10359;53.596;22.520;2023-09-12T06:33:26;18.10;99.90
20400;DHT22;10359;53.596;22.520;2023-09-12T06:40:23;18.60;99.90
20400;DHT22;10359;53.596;22.520;2023-09-12T06:47:20;19.10;99.90
20400;DHT22;10359;53.596;22.520;2023-09-12T06:57:44;19.60;99.90
20400;DHT22;10359;53.596;22.520;2023-09-12T07:04:24;19.90;99.90
20400;DHT22;10359;53.596;22.520;2023-09-12T07:11:22;20.10;99.90
20400;DHT22;10359;53.596;22.520;2023-09-12T07:18:21;20.40;99.90
20400;DHT22;10359;53.596;22.520;2023-09-12T07:25:07;20.80;99.90
20400;DHT22;10359;53.596;22.520;2023-09-12T07:31:56;21.20;99.90
20400;DHT22;10359;53.596;22.520;2023-09-12T07:38:40;21.60;99.90
20400;DHT22;10359;53.596;22.520;2023-09-12T07:45:20;22.00;99.90
20400;DHT22;10359;53.596;22.520;2023-09-12T07:52:00;22.20;99.90
20400;DHT22;10359;53.596;22.520;2023-09-12T07:55:06;22.40;99.90
20400;DHT22;10359;53.596;22.520;2023-09-12T07:58:02;22.60;99.90
20400;DHT22;10359;53.596;22.520;2023-09-12T08:05:07;23.00;99.90
20400;DHT22;10359;53.596;22.520;2023-09-12T08:11:55;23.30;99.90
20400;DHT22;10359;53.596;22.520;2023-09-12T08:18:41;23.60;99.90
20400;DHT22;10359;53.596;22.520;2023-09-12T08:25:21;24.00;99.90
20400;DHT22;10359;53.596;22.520;2023-09-12T08:35:54;24.40;99.90
20400;DHT22;10359;53.596;22.520;2023-09-12T08:42:43;24.90;99.90
20400;DHT22;10359;53.596;22.520;2023-09-12T08:49:32;25.20;99.90
20400;DHT22;10359;53.596;22.520;2023-09-12T08:52:43;25.30;99.90
20400;DHT22;10359;53.596;22.520;2023-09-12T08:56:00;25.40;99.90
20400;DHT22;10359;53.596;22.520;2023-09-12T09:11:03;26.20;99.90
20400;DHT22;10359;53.596;22.520;2023-09-12T09:17:44;26.40;99.90
20400;DHT22;10359;53.596;22.520;2023-09-12T09:24:30;26.90;99.90
20400;DHT22;10359;53.596;22.520;2023-09-12T09:31:18;27.00;99.90
20400;DHT22;10359;53.596;22.520;2023-09-12T09:38:00;27.40;99.90
20400;DHT22;10359;53.596;22.520;2023-09-12T09:44:48;27.60;99.90
20400;DHT22;10359;53.596;22.520;2023-09-12T09:51:31;27.70;99.90
20400;DHT22;10359;53.596;22.520;2023-09-12T09:58:17;28.10;99.90
20400;DHT22;10359;53.596;22.520;2023-09-12T10:05:15;28.10;99.90
20400;DHT22;10359;53.596;22.520;2023-09-12T10:12:14;28.30;99.90
20400;DHT22;10359;53.596;22.520;2023-09-12T10:19:15;28.20;99.90
20400;DHT22;10359;53.596;22.520;2023-09-12T10:26:13;28.40;99.90
20400;DHT22;10359;53.596;22.520;2023-09-12T10:33:03;28.50;99.90
20400;DHT22;10359;53.596;22.520;2023-09-12T10:39:44;28.40;99.90
20400;DHT22;10359;53.596;22.520;2023-09-12T10:46:25;28.40;99.90
20400;DHT22;10359;53.596;22.520;2023-09-12T11:01:23;28.80;99.90
20400;DHT22;10359;53.596;22.520;2023-09-12T11:08:07;28.70;99.90
20400;DHT22;10359;53.596;22.520;2023-09-12T11:15:04;28.40;99.90
20400;DHT22;10359;53.596;22.520;2023-09-12T11:21:57;28.40;99.90
20400;DHT22;10359;53.596;22.520;2023-09-12T11:28:38;29.00;99.90
20400;DHT22;10359;53.596;22.520;2023-09-12T11:38:32;28.70;99.90
20400;DHT22;10359;53.596;22.520;2023-09-12T11:45:20;28.90;99.90
20400;DHT22;10359;53.596;22.520;2023-09-12T11:51:59;28.70;99.90
20400;DHT22;10359;53.596;22.520;2023-09-12T11:58:43;28.70;99.90
20400;DHT22;10359;53.596;22.520;2023-09-12T12:05:30;29.30;99.90
20400;DHT22;10359;53.596;22.520;2023-09-12T12:12:11;29.40;99.90
20400;DHT22;10359;53.596;22.520;2023-09-12T12:19:11;29.70;99.90
20400;DHT22;10359;53.596;22.520;2023-09-12T12:26:03;29.70;99.90
20400;DHT22;10359;53.596;22.520;2023-09-12T12:32:49;29.70;99.90
20400;DHT22;10359;53.596;22.520;2023-09-12T12:39:56;29.10;99.90
20400;DHT22;10359;53.596;22.520;2023-09-12T12:46:54;28.80;99.90
20400;DHT22;10359;53.596;22.520;2023-09-12T12:53:52;29.20;99.90
20400;DHT22;10359;53.596;22.520;2023-09-12T12:56:56;29.50;99.90
20400;DHT22;10359;53.596;22.520;2023-09-12T13:03:26;30.20;99.90
20400;DHT22;10359;53.596;22.520;2023-09-12T13:10:14;30.10;99.90
20400;DHT22;10359;53.596;22.520;2023-09-12T13:16:55;29.90;99.90
20400;DHT22;10359;53.596;22.520;2023-09-12T13:23:43;30.00;99.90
20400;DHT22;10359;53.596;22.520;2023-09-12T13:30:29;29.80;99.90
20400;DHT22;10359;53.596;22.520;2023-09-12T13:37:10;29.70;99.90
20400;DHT22;10359;53.596;22.520;2023-09-12T13:43:51;30.00;99.90
20400;DHT22;10359;53.596;22.520;2023-09-12T13:50:31;31.40;99.90
20400;DHT22;10359;53.596;22.520;2023-09-12T13:57:19;31.20;99.90
20400;DHT22;10359;53.596;22.520;2023-09-12T14:11:50;30.20;99.90
20400;DHT22;10359;53.596;22.520;2023-09-12T14:18:41;29.70;99.90
20400;DHT22;10359;53.596;22.520;2023-09-12T14:25:22;29.60;99.90
20400;DHT22;10359;53.596;22.520;2023-09-12T14:32:10;29.10;99.90
20400;DHT22;10359;53.596;22.520;2023-09-12T14:38:59;28.90;99.90
20400;DHT22;10359;53.596;22.520;2023-09-12T14:45:55;28.50;99.90
20400;DHT22;10359;53.596;22.520;2023-09-12T14:52:44;28.40;99.90
20400;DHT22;10359;53.596;22.520;2023-09-12T14:59:20;28.20;99.90
20400;DHT22;10359;53.596;22.520;2023-09-12T15:06:25;28.00;99.90
20400;DHT22;10359;53.596;22.520;2023-09-12T15:13:13;27.90;99.90
20400;DHT22;10359;53.596;22.520;2023-09-12T15:20:01;27.70;99.90
20400;DHT22;10359;53.596;22.520;2023-09-12T15:37:48;27.20;99.90
20400;DHT22;10359;53.596;22.520;2023-09-12T15:52:28;26.60;99.90
20400;DHT22;10359;53.596;22.520;2023-09-12T15:59:16;26.30;99.90
20400;DHT22;10359;53.596;22.520;2023-09-12T16:06:15;26.10;99.90
20400;DHT22;10359;53.596;22.520;2023-09-12T16:13:04;25.80;99.90
20400;DHT22;10359;53.596;22.520;2023-09-12T16:20:00;25.50;99.90
20400;DHT22;10359;53.596;22.520;2023-09-12T16:26:49;25.10;99.90
20400;DHT22;10359;53.596;22.520;2023-09-12T16:33:35;24.70;99.90
20400;DHT22;10359;53.596;22.520;2023-09-12T16:40:27;24.30;99.90
20400;DHT22;10359;53.596;22.520;2023-09-12T16:47:17;24.00;99.90
20400;DHT22;10359;53.596;22.520;2023-09-12T16:54:04;23.60;99.90
20400;DHT22;10359;53.596;22.520;2023-09-12T16:56:55;23.40;99.90
20400;DHT22;10359;53.596;22.520;2023-09-12T17:00:07;23.20;99.90
20400;DHT22;10359;53.596;22.520;2023-09-12T17:06:48;22.90;99.90
20400;DHT22;10359;53.596;22.520;2023-09-12T17:13:49;22.60;99.90
20400;DHT22;10359;53.596;22.520;2023-09-12T17:20:36;22.30;99.90
20400;DHT22;10359;53.596;22.520;2023-09-12T17:27:23;22.00;99.90
20400;DHT22;10359;53.596;22.520;2023-09-12T17:34:17;21.80;99.90
20400;DHT22;10359;53.596;22.520;2023-09-12T17:40:58;21.60;99.90
20400;DHT22;10359;53.596;22.520;2023-09-12T17:47:47;21.30;99.90
20400;DHT22;10359;53.596;22.520;2023-09-12T17:54:32;21.00;99.90
20400;DHT22;10359;53.596;22.520;2023-09-12T17:57:23;21.00;99.90
20400;DHT22;10359;53.596;22.520;2023-09-12T18:01:01;20.90;99.90
20400;DHT22;10359;53.596;22.520;2023-09-12T18:03:59;20.80;99.90
20400;DHT22;10359;53.596;22.520;2023-09-12T18:07:04;20.60;99.90
20400;DHT22;10359;53.596;22.520;2023-09-12T18:17:04;20.30;99.90
20400;DHT22;10359;53.596;22.520;2023-09-12T18:23:45;20.10;99.90
20400;DHT22;10359;53.596;22.520;2023-09-12T18:30:37;20.00;99.90
20400;DHT22;10359;53.596;22.520;2023-09-12T18:37:27;19.80;99.90
20400;DHT22;10359;53.596;22.520;2023-09-12T18:44:11;19.70;99.90
20400;DHT22;10359;53.596;22.520;2023-09-12T18:51:00;19.60;99.90
20400;DHT22;10359;53.596;22.520;2023-09-12T18:57:59;19.50;99.90
20400;DHT22;10359;53.596;22.520;2023-09-12T19:04:55;19.40;99.90
20400;DHT22;10359;53.596;22.520;2023-09-12T19:11:51;19.30;99.90
20400;DHT22;10359;53.596;22.520;2023-09-12T19:18:41;19.20;99.90
20400;DHT22;10359;53.596;22.520;2023-09-12T19:25:32;19.00;99.90
20400;DHT22;10359;53.596;22.520;2023-09-12T19:32:18;18.70;99.90
20400;DHT22;10359;53.596;22.520;2023-09-12T19:39:06;18.60;99.90
20400;DHT22;10359;53.596;22.520;2023-09-12T19:52:52;18.40;99.90
20400;DHT22;10359;53.596;22.520;2023-09-12T20:00:19;18.30;99.90
20400;DHT22;10359;53.596;22.520;2023-09-12T20:07:21;18.20;99.90
20400;DHT22;10359;53.596;22.520;2023-09-12T20:21:48;17.80;99.90
20400;DHT22;10359;53.596;22.520;2023-09-12T20:28:29;17.80;99.90
20400;DHT22;10359;53.596;22.520;2023-09-12T20:39:37;17.70;99.90
20400;DHT22;10359;53.596;22.520;2023-09-12T20:46:36;17.60;99.90
20400;DHT22;10359;53.596;22.520;2023-09-12T20:53:26;17.50;99.90
20400;DHT22;10359;53.596;22.520;2023-09-12T21:00:10;17.40;99.90
20400;DHT22;10359;53.596;22.520;2023-09-12T21:07:05;17.30;99.90
20400;DHT22;10359;53.596;22.520;2023-09-12T21:13:54;17.20;99.90
20400;DHT22;10359;53.596;22.520;2023-09-12T21:20:41;17.10;99.90
20400;DHT22;10359;53.596;22.520;2023-09-12T21:27:26;17.00;99.90
20400;DHT22;10359;53.596;22.520;2023-09-12T21:30:40;17.00;99.90
20400;DHT22;10359;53.596;22.520;2023-09-12T21:44:42;16.80;99.90
20400;DHT22;10359;53.596;22.520;2023-09-12T21:51:28;16.80;99.90
20400;DHT22;10359;53.596;22.520;2023-09-12T21:58:08;16.70;99.90
20400;DHT22;10359;53.596;22.520;2023-09-12T22:01:41;16.60;99.90
20400;DHT22;10359;53.596;22.520;2023-09-12T22:04:37;16.60;99.90
20400;DHT22;10359;53.596;22.520;2023-09-12T22:11:17;16.40;99.90
20400;DHT22;10359;53.596;22.520;2023-09-12T22:17:58;16.30;99.90
20400;DHT22;10359;53.596;22.520;2023-09-12T22:24:45;16.30;99.90
20400;DHT22;10359;53.596;22.520;2023-09-12T22:31:31;16.20;99.90
20400;DHT22;10359;53.596;22.520;2023-09-12T22:38:12;16.10;99.90
20400;DHT22;10359;53.596;22.520;2023-09-12T22:44:53;16.10;99.90
20400;DHT22;10359;53.596;22.520;2023-09-12T22:51:33;16.00;99.90
20400;DHT22;10359;53.596;22.520;2023-09-12T22:58:08;15.90;99.90
20400;DHT22;10359;53.596;22.520;2023-09-12T23:01:46;15.90;99.90
20400;DHT22;10359;53.596;22.520;2023-09-12T23:04:42;15.80;99.90
20400;DHT22;10359;53.596;22.520;2023-09-12T23:18:27;15.70;99.90
20400;DHT22;10359;53.596;22.520;2023-09-12T23:25:24;15.60;99.90
20400;DHT22;10359;53.596;22.520;2023-09-12T23:32:10;15.60;99.90
20400;DHT22;10359;53.596;22.520;2023-09-12T23:38:51;15.50;99.90
20400;DHT22;10359;53.596;22.520;2023-09-12T23:45:37;15.30;99.90
20400;DHT22;10359;53.596;22.520;2023-09-12T23:52:23;15.30;99.90
20400;DHT22;10359;53.596;22.520;2023-09-12T23:59:11;15.30;99.90
